sensor_id;sensor_type;location;lat;lon;timestamp;pressure;altitude;pressure_sealevel;temperature;humidity
64460;BME280;50828;53.756;21.140;2023-05-02T00:04:21;99833.88;;;8.71;47.40
64460;BME280;50828;53.756;21.140;2023-05-02T00:09:29;99831.66;;;8.69;47.67
64460;BME280;50828;53.756;21.140;2023-05-02T00:14:38;99826.63;;;8.67;47.67
64460;BME280;50828;53.756;21.140;2023-05-02T00:19:45;99819.64;;;8.66;47.84
64460;BME280;50828;53.756;21.140;2023-05-02T00:24:57;99816.31;;;8.67;47.97
64460;BME280;50828;53.756;21.140;2023-05-02T00:30:07;99809.66;;;8.66;47.83
64460;BME280;50828;53.756;21.140;2023-05-02T00:35:14;99802.45;;;8.66;47.91
64460;BME280;50828;53.756;21.140;2023-05-02T00:40:22;99798.89;;;8.67;48.06
64460;BME280;50828;53.756;21.140;2023-05-02T00:45:30;99795.33;;;8.69;48.01
64460;BME280;50828;53.756;21.140;2023-05-02T00:50:39;99793.05;;;8.69;48.18
64460;BME280;50828;53.756;21.140;2023-05-02T00:55:46;99789.03;;;8.68;48.15
64460;BME280;50828;53.756;21.140;2023-05-02T01:01:05;99785.39;;;8.67;48.33
64460;BME280;50828;53.756;21.140;2023-05-02T01:06:23;99777.02;;;8.66;48.36
64460;BME280;50828;53.756;21.140;2023-05-02T01:11:43;99769.83;;;8.65;48.55
64460;BME280;50828;53.756;21.140;2023-05-02T01:16:55;99766.36;;;8.64;48.48
64460;BME280;50828;53.756;21.140;2023-05-02T01:22:06;99764.30;;;8.62;48.55
64460;BME280;50828;53.756;21.140;2023-05-02T01:27:27;99760.52;;;8.61;48.50
64460;BME280;50828;53.756;21.140;2023-05-02T01:32:39;99755.19;;;8.58;48.52
64460;BME280;50828;53.756;21.140;2023-05-02T01:37:49;99756.45;;;8.57;48.54
64460;BME280;50828;53.756;21.140;2023-05-02T01:43:00;99746.45;;;8.52;48.77
64460;BME280;50828;53.756;21.140;2023-05-02T01:48:10;99737.94;;;8.50;48.90
64460;BME280;50828;53.756;21.140;2023-05-02T01:53:21;99736.23;;;8.48;49.09
64460;BME280;50828;53.756;21.140;2023-05-02T01:58:31;99723.73;;;8.45;48.96
64460;BME280;50828;53.756;21.140;2023-05-02T02:03:40;99719.95;;;8.42;48.86
64460;BME280;50828;53.756;21.140;2023-05-02T02:08:48;99714.61;;;8.39;48.94
64460;BME280;50828;53.756;21.140;2023-05-02T02:14:03;99709.61;;;8.37;49.08
64460;BME280;50828;53.756;21.140;2023-05-02T02:19:14;99703.23;;;8.34;49.16
64460;BME280;50828;53.756;21.140;2023-05-02T02:24:23;99704.89;;;8.32;49.33
64460;BME280;50828;53.756;21.140;2023-05-02T02:29:33;99687.84;;;8.27;49.22
64460;BME280;50828;53.756;21.140;2023-05-02T02:34:41;99685.86;;;8.29;49.43
64460;BME280;50828;53.756;21.140;2023-05-02T02:39:54;99685.17;;;8.28;49.36
64460;BME280;50828;53.756;21.140;2023-05-02T02:45:08;99678.52;;;8.28;49.67
64460;BME280;50828;53.756;21.140;2023-05-02T02:50:26;99678.89;;;8.27;49.71
64460;BME280;50828;53.756;21.140;2023-05-02T02:55:43;99676.73;;;8.29;49.72
64460;BME280;50828;53.756;21.140;2023-05-02T03:00:52;99671.41;;;8.31;49.48
64460;BME280;50828;53.756;21.140;2023-05-02T03:06:01;99667.86;;;8.32;49.77
64460;BME280;50828;53.756;21.140;2023-05-02T03:11:10;99665.92;;;8.32;49.78
64460;BME280;50828;53.756;21.140;2023-05-02T03:16:34;99655.92;;;8.32;49.78
64460;BME280;50828;53.756;21.140;2023-05-02T03:21:43;99651.19;;;8.32;49.89
64460;BME280;50828;53.756;21.140;2023-05-02T03:26:55;99646.83;;;8.31;49.71
64460;BME280;50828;53.756;21.140;2023-05-02T03:32:06;99636.83;;;8.31;49.82
64460;BME280;50828;53.756;21.140;2023-05-02T03:37:15;99630.60;;;8.29;50.13
64460;BME280;50828;53.756;21.140;2023-05-02T03:42:22;99627.21;;;8.31;49.95
64460;BME280;50828;53.756;21.140;2023-05-02T03:47:30;99626.10;;;8.32;50.19
64460;BME280;50828;53.756;21.140;2023-05-02T03:52:38;99623.54;;;8.35;50.24
64460;BME280;50828;53.756;21.140;2023-05-02T03:57:45;99623.42;;;8.38;50.14
64460;BME280;50828;53.756;21.140;2023-05-02T04:02:53;99633.04;;;8.44;50.22
64460;BME280;50828;53.756;21.140;2023-05-02T04:08:04;99636.82;;;8.50;50.24
64460;BME280;50828;53.756;21.140;2023-05-02T04:13:11;99637.02;;;8.59;50.34
64460;BME280;50828;53.756;21.140;2023-05-02T04:18:22;99630.33;;;8.68;50.01
64460;BME280;50828;53.756;21.140;2023-05-02T04:23:30;99628.39;;;8.77;50.09
64460;BME280;50828;53.756;21.140;2023-05-02T04:28:39;99625.59;;;8.86;49.89
64460;BME280;50828;53.756;21.140;2023-05-02T04:33:47;99623.62;;;8.95;50.18
64460;BME280;50828;53.756;21.140;2023-05-02T04:39:01;99617.22;;;9.06;50.15
64460;BME280;50828;53.756;21.140;2023-05-02T04:44:10;99616.84;;;9.15;50.20
64460;BME280;50828;53.756;21.140;2023-05-02T04:49:18;99621.34;;;9.29;50.10
64460;BME280;50828;53.756;21.140;2023-05-02T04:54:26;99621.56;;;9.40;49.97
64460;BME280;50828;53.756;21.140;2023-05-02T04:59:34;99629.41;;;9.49;50.04
64460;BME280;50828;53.756;21.140;2023-05-02T05:04:42;99642.80;;;9.61;50.10
64460;BME280;50828;53.756;21.140;2023-05-02T05:09:51;99643.45;;;9.74;49.82
64460;BME280;50828;53.756;21.140;2023-05-02T05:15:01;99637.91;;;9.88;49.99
64460;BME280;50828;53.756;21.140;2023-05-02T05:20:10;99628.26;;;10.03;50.01
64460;BME280;50828;53.756;21.140;2023-05-02T05:25:18;99622.89;;;10.21;50.09
64460;BME280;50828;53.756;21.140;2023-05-02T05:30:27;99615.60;;;10.42;50.02
64460;BME280;50828;53.756;21.140;2023-05-02T05:35:37;99617.52;;;10.64;49.72
64460;BME280;50828;53.756;21.140;2023-05-02T05:40:45;99618.60;;;10.82;49.64
64460;BME280;50828;53.756;21.140;2023-05-02T05:45:56;99615.44;;;10.92;49.27
64460;BME280;50828;53.756;21.140;2023-05-02T05:51:06;99613.64;;;11.04;49.08
64460;BME280;50828;53.756;21.140;2023-05-02T05:56:14;99611.29;;;11.16;49.07
64460;BME280;50828;53.756;21.140;2023-05-02T06:01:30;99613.14;;;11.28;49.15
64460;BME280;50828;53.756;21.140;2023-05-02T06:06:39;99610.38;;;11.41;48.74
64460;BME280;50828;53.756;21.140;2023-05-02T06:11:47;99611.71;;;11.49;49.10
64460;BME280;50828;53.756;21.140;2023-05-02T06:16:55;99616.67;;;11.59;49.18
64460;BME280;50828;53.756;21.140;2023-05-02T06:22:05;99616.69;;;11.72;49.12
64460;BME280;50828;53.756;21.140;2023-05-02T06:27:12;99618.83;;;11.88;49.39
64460;BME280;50828;53.756;21.140;2023-05-02T06:32:20;99619.84;;;12.09;49.32
64460;BME280;50828;53.756;21.140;2023-05-02T06:37:28;99619.54;;;12.31;48.93
64460;BME280;50828;53.756;21.140;2023-05-02T06:42:39;99618.02;;;12.52;48.68
64460;BME280;50828;53.756;21.140;2023-05-02T06:47:46;99617.41;;;12.72;48.94
64460;BME280;50828;53.756;21.140;2023-05-02T06:52:54;99617.99;;;12.93;48.22
64460;BME280;50828;53.756;21.140;2023-05-02T06:58:02;99622.77;;;13.11;48.43
64460;BME280;50828;53.756;21.140;2023-05-02T07:03:09;99619.98;;;13.29;48.01
64460;BME280;50828;53.756;21.140;2023-05-02T07:08:17;99616.04;;;13.45;48.01
64460;BME280;50828;53.756;21.140;2023-05-02T07:13:27;99622.48;;;13.62;47.97
64460;BME280;50828;53.756;21.140;2023-05-02T07:18:34;99627.55;;;13.77;47.75
64460;BME280;50828;53.756;21.140;2023-05-02T07:23:42;99624.52;;;13.86;47.48
64460;BME280;50828;53.756;21.140;2023-05-02T07:28:50;99626.64;;;13.95;47.61
64460;BME280;50828;53.756;21.140;2023-05-02T07:33:57;99630.57;;;14.03;47.63
64460;BME280;50828;53.756;21.140;2023-05-02T07:39:05;99632.48;;;14.12;47.70
64460;BME280;50828;53.756;21.140;2023-05-02T07:44:13;99638.70;;;14.21;47.67
64460;BME280;50828;53.756;21.140;2023-05-02T07:49:21;99642.92;;;14.29;47.07
64460;BME280;50828;53.756;21.140;2023-05-02T07:54:28;99644.05;;;14.37;47.30
64460;BME280;50828;53.756;21.140;2023-05-02T07:59:36;99642.77;;;14.45;47.08
64460;BME280;50828;53.756;21.140;2023-05-02T08:04:44;99640.34;;;14.54;47.00
64460;BME280;50828;53.756;21.140;2023-05-02T08:09:51;99640.83;;;14.63;47.29
64460;BME280;50828;53.756;21.140;2023-05-02T08:14:59;99647.79;;;14.71;47.19
64460;BME280;50828;53.756;21.140;2023-05-02T08:20:12;99656.89;;;14.77;47.12
64460;BME280;50828;53.756;21.140;2023-05-02T08:25:20;99652.48;;;14.83;46.95
64460;BME280;50828;53.756;21.140;2023-05-02T08:30:28;99665.88;;;14.89;46.99
64460;BME280;50828;53.756;21.140;2023-05-02T08:35:36;99686.55;;;14.96;46.81
64460;BME280;50828;53.756;21.140;2023-05-02T08:40:44;99692.25;;;14.98;46.78
64460;BME280;50828;53.756;21.140;2023-05-02T08:45:55;99699.73;;;14.98;46.68
64460;BME280;50828;53.756;21.140;2023-05-02T08:51:09;99707.42;;;14.94;47.05
64460;BME280;50828;53.756;21.140;2023-05-02T08:56:17;99720.92;;;14.91;47.63
64460;BME280;50828;53.756;21.140;2023-05-02T09:01:29;99729.80;;;14.85;48.24
64460;BME280;50828;53.756;21.140;2023-05-02T09:06:37;99739.80;;;14.78;48.90
64460;BME280;50828;53.756;21.140;2023-05-02T09:11:47;99750.88;;;14.71;49.66
64460;BME280;50828;53.756;21.140;2023-05-02T09:16:59;99747.33;;;14.63;50.38
64460;BME280;50828;53.756;21.140;2023-05-02T09:22:07;99749.80;;;14.54;50.91
64460;BME280;50828;53.756;21.140;2023-05-02T09:27:15;99758.27;;;14.52;51.63
64460;BME280;50828;53.756;21.140;2023-05-02T09:32:45;99758.09;;;14.52;51.93
64460;BME280;50828;53.756;21.140;2023-05-02T09:37:56;99771.30;;;14.53;52.34
64460;BME280;50828;53.756;21.140;2023-05-02T09:43:14;99777.55;;;14.52;52.10
64460;BME280;50828;53.756;21.140;2023-05-02T09:48:25;99780.39;;;14.49;52.12
64460;BME280;50828;53.756;21.140;2023-05-02T09:53:32;99770.05;;;14.47;52.02
64460;BME280;50828;53.756;21.140;2023-05-02T09:58:50;99765.59;;;14.48;52.12
64460;BME280;50828;53.756;21.140;2023-05-02T10:03:58;99772.34;;;14.50;51.95
64460;BME280;50828;53.756;21.140;2023-05-02T10:09:06;99780.52;;;14.56;51.74
64460;BME280;50828;53.756;21.140;2023-05-02T10:14:13;99782.83;;;14.59;51.58
64460;BME280;50828;53.756;21.140;2023-05-02T10:19:26;99789.44;;;14.63;51.58
64460;BME280;50828;53.756;21.140;2023-05-02T10:24:36;99801.12;;;14.70;51.79
64460;BME280;50828;53.756;21.140;2023-05-02T10:29:44;99808.35;;;14.74;51.75
64460;BME280;50828;53.756;21.140;2023-05-02T10:34:53;99817.69;;;14.77;51.92
64460;BME280;50828;53.756;21.140;2023-05-02T10:40:04;99830.24;;;14.77;52.54
64460;BME280;50828;53.756;21.140;2023-05-02T10:45:29;99842.78;;;14.75;53.28
64460;BME280;50828;53.756;21.140;2023-05-02T10:50:46;99855.33;;;14.70;54.06
64460;BME280;50828;53.756;21.140;2023-05-02T10:56:14;99862.15;;;14.63;54.05
64460;BME280;50828;53.756;21.140;2023-05-02T11:01:35;99859.44;;;14.55;54.69
64460;BME280;50828;53.756;21.140;2023-05-02T11:07:17;99850.61;;;14.45;54.76
64460;BME280;50828;53.756;21.140;2023-05-02T11:12:45;99849.80;;;14.35;54.92
64460;BME280;50828;53.756;21.140;2023-05-02T11:18:09;99839.17;;;14.26;55.38
64460;BME280;50828;53.756;21.140;2023-05-02T11:23:27;99842.16;;;14.21;55.56
64460;BME280;50828;53.756;21.140;2023-05-02T11:28:42;99845.34;;;14.18;55.85
64460;BME280;50828;53.756;21.140;2023-05-02T11:33:57;99839.95;;;14.16;56.07
64460;BME280;50828;53.756;21.140;2023-05-02T11:39:16;99845.02;;;14.17;56.30
64460;BME280;50828;53.756;21.140;2023-05-02T11:44:25;99852.77;;;14.24;56.33
64460;BME280;50828;53.756;21.140;2023-05-02T11:49:33;99858.89;;;14.34;56.58
64460;BME280;50828;53.756;21.140;2023-05-02T11:54:41;99862.25;;;14.46;56.32
64460;BME280;50828;53.756;21.140;2023-05-02T11:59:52;99869.79;;;14.59;55.60
64460;BME280;50828;53.756;21.140;2023-05-02T12:05:00;99873.77;;;14.73;55.40
64460;BME280;50828;53.756;21.140;2023-05-02T12:10:10;99883.27;;;14.86;55.23
64460;BME280;50828;53.756;21.140;2023-05-02T12:15:18;99892.47;;;14.98;54.67
64460;BME280;50828;53.756;21.140;2023-05-02T12:20:26;99896.77;;;15.08;53.56
64460;BME280;50828;53.756;21.140;2023-05-02T12:25:38;99897.59;;;15.18;53.61
64460;BME280;50828;53.756;21.140;2023-05-02T12:30:45;99897.16;;;15.30;54.11
64460;BME280;50828;53.756;21.140;2023-05-02T12:35:53;99898.42;;;15.47;53.59
64460;BME280;50828;53.756;21.140;2023-05-02T12:41:01;99892.23;;;15.60;52.59
64460;BME280;50828;53.756;21.140;2023-05-02T12:46:12;99894.63;;;15.73;52.00
64460;BME280;50828;53.756;21.140;2023-05-02T12:51:22;99890.64;;;15.86;51.89
64460;BME280;50828;53.756;21.140;2023-05-02T12:56:31;99894.25;;;15.98;51.78
64460;BME280;50828;53.756;21.140;2023-05-02T13:01:45;99890.98;;;16.10;51.41
64460;BME280;50828;53.756;21.140;2023-05-02T13:06:53;99893.67;;;16.20;51.11
64460;BME280;50828;53.756;21.140;2023-05-02T13:12:00;99899.66;;;16.31;50.61
64460;BME280;50828;53.756;21.140;2023-05-02T13:17:08;99903.02;;;16.40;49.32
64460;BME280;50828;53.756;21.140;2023-05-02T13:22:16;99906.14;;;16.46;48.36
64460;BME280;50828;53.756;21.140;2023-05-02T13:27:24;99911.98;;;16.52;48.16
64460;BME280;50828;53.756;21.140;2023-05-02T13:32:32;99910.70;;;16.55;47.97
64460;BME280;50828;53.756;21.140;2023-05-02T13:37:40;99916.96;;;16.60;47.95
64460;BME280;50828;53.756;21.140;2023-05-02T13:42:48;99918.81;;;16.63;48.47
64460;BME280;50828;53.756;21.140;2023-05-02T13:47:55;99918.49;;;16.68;47.87
64460;BME280;50828;53.756;21.140;2023-05-02T13:53:03;99916.39;;;16.74;47.99
64460;BME280;50828;53.756;21.140;2023-05-02T13:58:11;99920.98;;;16.77;48.20
64460;BME280;50828;53.756;21.140;2023-05-02T14:03:19;99916.38;;;16.76;48.19
64460;BME280;50828;53.756;21.140;2023-05-02T14:08:27;99922.85;;;16.86;47.86
64460;BME280;50828;53.756;21.140;2023-05-02T14:13:34;99925.45;;;16.89;47.55
64460;BME280;50828;53.756;21.140;2023-05-02T14:18:43;99931.75;;;16.91;47.22
64460;BME280;50828;53.756;21.140;2023-05-02T14:23:51;99936.43;;;16.87;46.45
64460;BME280;50828;53.756;21.140;2023-05-02T14:28:59;99939.83;;;16.82;45.76
64460;BME280;50828;53.756;21.140;2023-05-02T14:34:07;99945.69;;;16.79;45.36
64460;BME280;50828;53.756;21.140;2023-05-02T14:39:14;99950.05;;;16.75;45.14
64460;BME280;50828;53.756;21.140;2023-05-02T14:44:22;99968.02;;;16.72;45.22
64460;BME280;50828;53.756;21.140;2023-05-02T14:49:30;99980.84;;;16.67;45.36
64460;BME280;50828;53.756;21.140;2023-05-02T14:54:38;100000.54;;;16.62;45.51
64460;BME280;50828;53.756;21.140;2023-05-02T14:59:46;100009.94;;;16.57;45.84
64460;BME280;50828;53.756;21.140;2023-05-02T15:04:53;100023.04;;;16.50;46.23
64460;BME280;50828;53.756;21.140;2023-05-02T15:10:01;100027.05;;;16.40;46.55
64460;BME280;50828;53.756;21.140;2023-05-02T15:15:10;100042.27;;;16.30;46.74
64460;BME280;50828;53.756;21.140;2023-05-02T15:20:19;100056.23;;;16.17;47.07
64460;BME280;50828;53.756;21.140;2023-05-02T15:25:26;100072.43;;;16.06;47.36
64460;BME280;50828;53.756;21.140;2023-05-02T15:30:34;100083.59;;;15.92;48.21
64460;BME280;50828;53.756;21.140;2023-05-02T15:35:46;100097.11;;;15.80;48.71
64460;BME280;50828;53.756;21.140;2023-05-02T15:40:59;100099.98;;;15.68;49.41
64460;BME280;50828;53.756;21.140;2023-05-02T15:46:07;100117.63;;;15.55;49.94
64460;BME280;50828;53.756;21.140;2023-05-02T15:51:15;100131.61;;;15.41;50.14
64460;BME280;50828;53.756;21.140;2023-05-02T15:56:23;100141.77;;;15.25;50.10
64460;BME280;50828;53.756;21.140;2023-05-02T16:01:31;100154.86;;;15.10;50.32
64460;BME280;50828;53.756;21.140;2023-05-02T16:06:39;100168.38;;;14.95;50.33
64460;BME280;50828;53.756;21.140;2023-05-02T16:11:47;100181.87;;;14.78;50.71
64460;BME280;50828;53.756;21.140;2023-05-02T16:16:57;100185.30;;;14.61;50.86
64460;BME280;50828;53.756;21.140;2023-05-02T16:22:05;100189.83;;;14.43;50.60
64460;BME280;50828;53.756;21.140;2023-05-02T16:27:13;100201.17;;;14.30;50.62
64460;BME280;50828;53.756;21.140;2023-05-02T16:32:20;100203.47;;;14.14;50.41
64460;BME280;50828;53.756;21.140;2023-05-02T16:37:31;100207.89;;;13.97;50.31
64460;BME280;50828;53.756;21.140;2023-05-02T16:42:39;100215.27;;;13.81;50.47
64460;BME280;50828;53.756;21.140;2023-05-02T16:47:47;100218.33;;;13.66;50.44
64460;BME280;50828;53.756;21.140;2023-05-02T16:52:55;100231.12;;;13.51;50.63
64460;BME280;50828;53.756;21.140;2023-05-02T16:58:02;100240.48;;;13.38;50.57
64460;BME280;50828;53.756;21.140;2023-05-02T17:03:11;100242.95;;;13.22;50.89
64460;BME280;50828;53.756;21.140;2023-05-02T17:08:19;100250.04;;;13.11;51.00
64460;BME280;50828;53.756;21.140;2023-05-02T17:13:26;100252.09;;;12.98;51.05
64460;BME280;50828;53.756;21.140;2023-05-02T17:18:34;100261.15;;;12.86;50.90
64460;BME280;50828;53.756;21.140;2023-05-02T17:23:42;100264.30;;;12.71;50.88
64460;BME280;50828;53.756;21.140;2023-05-02T17:28:49;100269.58;;;12.60;50.88
64460;BME280;50828;53.756;21.140;2023-05-02T17:33:58;100278.08;;;12.48;51.05
64460;BME280;50828;53.756;21.140;2023-05-02T17:39:05;100281.44;;;12.37;51.02
64460;BME280;50828;53.756;21.140;2023-05-02T17:44:13;100291.45;;;12.26;51.12
64460;BME280;50828;53.756;21.140;2023-05-02T17:49:21;100288.02;;;12.16;51.25
64460;BME280;50828;53.756;21.140;2023-05-02T17:54:28;100293.20;;;12.06;51.49
64460;BME280;50828;53.756;21.140;2023-05-02T17:59:39;100295.77;;;11.95;51.70
64460;BME280;50828;53.756;21.140;2023-05-02T18:04:46;100302.73;;;11.85;51.95
64460;BME280;50828;53.756;21.140;2023-05-02T18:09:54;100311.73;;;11.76;51.97
64460;BME280;50828;53.756;21.140;2023-05-02T18:15:02;100321.47;;;11.67;52.30
64460;BME280;50828;53.756;21.140;2023-05-02T18:20:11;100323.95;;;11.58;52.09
64460;BME280;50828;53.756;21.140;2023-05-02T18:25:19;100322.72;;;11.49;52.22
64460;BME280;50828;53.756;21.140;2023-05-02T18:30:27;100336.45;;;11.41;52.08
64460;BME280;50828;53.756;21.140;2023-05-02T18:35:35;100332.02;;;11.32;52.13
64460;BME280;50828;53.756;21.140;2023-05-02T18:40:42;100335.14;;;11.25;52.22
64460;BME280;50828;53.756;21.140;2023-05-02T18:45:50;100336.98;;;11.18;52.41
64460;BME280;50828;53.756;21.140;2023-05-02T18:50:58;100341.46;;;11.12;52.41
64460;BME280;50828;53.756;21.140;2023-05-02T18:56:12;100344.60;;;11.04;52.50
64460;BME280;50828;53.756;21.140;2023-05-02T19:01:20;100354.96;;;11.00;52.69
64460;BME280;50828;53.756;21.140;2023-05-02T19:06:28;100347.58;;;10.86;52.62
64460;BME280;50828;53.756;21.140;2023-05-02T19:11:36;100365.77;;;10.89;52.80
64460;BME280;50828;53.756;21.140;2023-05-02T19:16:44;100372.14;;;10.84;52.87
64460;BME280;50828;53.756;21.140;2023-05-02T19:21:52;100384.45;;;10.79;52.96
64460;BME280;50828;53.756;21.140;2023-05-02T19:27:00;100391.68;;;10.75;52.93
64460;BME280;50828;53.756;21.140;2023-05-02T19:32:09;100389.35;;;10.70;52.63
64460;BME280;50828;53.756;21.140;2023-05-02T19:37:16;100383.03;;;10.65;52.26
64460;BME280;50828;53.756;21.140;2023-05-02T19:42:24;100393.09;;;10.60;52.15
64460;BME280;50828;53.756;21.140;2023-05-02T19:47:32;100411.63;;;10.54;52.33
64460;BME280;50828;53.756;21.140;2023-05-02T19:52:40;100417.15;;;10.46;52.03
64460;BME280;50828;53.756;21.140;2023-05-02T19:57:49;100420.09;;;10.38;52.02
64460;BME280;50828;53.756;21.140;2023-05-02T20:02:57;100423.14;;;10.31;52.19
64460;BME280;50828;53.756;21.140;2023-05-02T20:08:05;100426.72;;;10.23;52.04
64460;BME280;50828;53.756;21.140;2023-05-02T20:13:13;100432.45;;;10.15;52.33
64460;BME280;50828;53.756;21.140;2023-05-02T20:18:20;100432.58;;;10.05;52.46
64460;BME280;50828;53.756;21.140;2023-05-02T20:23:28;100436.48;;;9.99;52.49
64460;BME280;50828;53.756;21.140;2023-05-02T20:28:35;100437.10;;;9.91;52.76
64460;BME280;50828;53.756;21.140;2023-05-02T20:33:43;100437.02;;;9.83;52.86
64460;BME280;50828;53.756;21.140;2023-05-02T20:38:50;100436.77;;;9.74;53.25
64460;BME280;50828;53.756;21.140;2023-05-02T20:43:58;100440.79;;;9.64;53.13
64460;BME280;50828;53.756;21.140;2023-05-02T20:49:07;100446.55;;;9.53;53.50
64460;BME280;50828;53.756;21.140;2023-05-02T20:54:15;100454.08;;;9.42;53.49
64460;BME280;50828;53.756;21.140;2023-05-02T20:59:22;100461.25;;;9.31;53.70
64460;BME280;50828;53.756;21.140;2023-05-02T21:04:30;100467.39;;;9.20;53.81
64460;BME280;50828;53.756;21.140;2023-05-02T21:09:38;100476.95;;;9.11;54.00
64460;BME280;50828;53.756;21.140;2023-05-02T21:14:46;100482.51;;;9.01;54.21
64460;BME280;50828;53.756;21.140;2023-05-02T21:19:55;100472.10;;;8.84;54.54
64460;BME280;50828;53.756;21.140;2023-05-02T21:25:02;100485.87;;;8.81;55.08
64460;BME280;50828;53.756;21.140;2023-05-02T21:30:12;100487.69;;;8.72;54.98
64460;BME280;50828;53.756;21.140;2023-05-02T21:35:20;100489.36;;;8.61;55.18
64460;BME280;50828;53.756;21.140;2023-05-02T21:40:27;100488.75;;;8.52;55.35
64460;BME280;50828;53.756;21.140;2023-05-02T21:45:43;100485.66;;;8.41;55.63
64460;BME280;50828;53.756;21.140;2023-05-02T21:50:51;100490.83;;;8.30;55.78
64460;BME280;50828;53.756;21.140;2023-05-02T21:55:59;100500.40;;;8.19;55.97
64460;BME280;50828;53.756;21.140;2023-05-02T22:01:07;100505.27;;;8.06;56.09
64460;BME280;50828;53.756;21.140;2023-05-02T22:06:14;100509.52;;;7.96;56.34
64460;BME280;50828;53.756;21.140;2023-05-02T22:11:22;100509.80;;;7.84;56.17
64460;BME280;50828;53.756;21.140;2023-05-02T22:16:30;100515.45;;;7.75;56.02
64460;BME280;50828;53.756;21.140;2023-05-02T22:21:37;100514.83;;;7.63;56.08
64460;BME280;50828;53.756;21.140;2023-05-02T22:26:45;100522.10;;;7.51;56.09
64460;BME280;50828;53.756;21.140;2023-05-02T22:31:54;100522.36;;;7.38;56.07
64460;BME280;50828;53.756;21.140;2023-05-02T22:37:02;100530.52;;;7.25;55.90
64460;BME280;50828;53.756;21.140;2023-05-02T22:42:10;100534.46;;;7.11;55.96
64460;BME280;50828;53.756;21.140;2023-05-02T22:47:17;100540.34;;;6.97;56.12
64460;BME280;50828;53.756;21.140;2023-05-02T22:52:26;100536.20;;;6.83;56.06
64460;BME280;50828;53.756;21.140;2023-05-02T22:57:34;100540.84;;;6.69;56.28
64460;BME280;50828;53.756;21.140;2023-05-02T23:02:42;100540.35;;;6.56;56.59
64460;BME280;50828;53.756;21.140;2023-05-02T23:07:50;100541.79;;;6.43;56.77
64460;BME280;50828;53.756;21.140;2023-05-02T23:12:58;100548.62;;;6.31;56.94
64460;BME280;50828;53.756;21.140;2023-05-02T23:18:05;100548.81;;;6.20;57.19
64460;BME280;50828;53.756;21.140;2023-05-02T23:23:13;100552.10;;;6.10;57.06
64460;BME280;50828;53.756;21.140;2023-05-02T23:28:20;100550.15;;;6.00;57.05
64460;BME280;50828;53.756;21.140;2023-05-02T23:33:28;100550.40;;;5.92;57.14
64460;BME280;50828;53.756;21.140;2023-05-02T23:38:36;100554.02;;;5.83;57.51
64460;BME280;50828;53.756;21.140;2023-05-02T23:43:44;100561.30;;;5.74;57.33
64460;BME280;50828;53.756;21.140;2023-05-02T23:48:51;100567.86;;;5.66;57.40
64460;BME280;50828;53.756;21.140;2023-05-02T23:53:59;100573.57;;;5.58;57.31
64460;BME280;50828;53.756;21.140;2023-05-02T23:59:06;100573.69;;;5.49;57.55
